createdAt,value
2023-10-05T00:01:54.040Z,12.50
2023-10-05T00:04:23.400Z,12.50
2023-10-05T00:06:55.024Z,12.50
2023-10-05T00:09:26.222Z,12.50
2023-10-05T00:11:56.722Z,12.60
2023-10-05T00:14:25.498Z,12.60
2023-10-05T00:16:55.414Z,12.60
2023-10-05T00:19:25.063Z,12.60
2023-10-05T00:21:52.748Z,12.60
2023-10-05T00:24:29.174Z,12.50
2023-10-05T00:26:57.486Z,12.50
2023-10-05T00:29:30.575Z,12.50
2023-10-05T00:32:01.777Z,12.50
2023-10-05T00:34:29.700Z,12.40
2023-10-05T00:37:00.968Z,12.40
2023-10-05T00:39:31.073Z,12.40
2023-10-05T00:42:04.437Z,12.40
2023-10-05T00:44:32.409Z,12.40
2023-10-05T00:47:05.166Z,12.30
2023-10-05T00:49:46.707Z,12.30
2023-10-05T00:52:19.021Z,12.30
2023-10-05T00:54:52.573Z,12.30
2023-10-05T00:57:29.629Z,12.20
2023-10-05T01:00:05.765Z,12.20
2023-10-05T01:02:33.646Z,12.20
2023-10-05T01:05:17.423Z,12.20
2023-10-05T01:07:45.238Z,12.20
2023-10-05T01:10:25.080Z,12.20
2023-10-05T01:12:52.417Z,12.10
2023-10-05T01:15:21.162Z,12.10
2023-10-05T01:17:51.398Z,12.00
2023-10-05T01:20:20.934Z,12.00
2023-10-05T01:22:48.466Z,12.00
2023-10-05T01:25:16.953Z,12.00
2023-10-05T01:27:48.964Z,12.00
2023-10-05T01:30:19.100Z,11.90
2023-10-05T01:32:47.328Z,11.90
2023-10-05T01:35:16.245Z,11.90
2023-10-05T01:37:47.899Z,11.90
2023-10-05T01:40:15.551Z,11.80
2023-10-05T01:42:44.506Z,11.60
2023-10-05T01:45:17.022Z,11.50
2023-10-05T01:47:48.019Z,11.40
2023-10-05T01:50:23.931Z,11.40
2023-10-05T01:53:03.550Z,11.40
2023-10-05T01:55:35.726Z,11.40
2023-10-05T01:58:05.945Z,11.30
2023-10-05T02:00:36.836Z,11.40
2023-10-05T02:03:07.115Z,11.50
2023-10-05T02:05:34.042Z,11.60
2023-10-05T02:08:01.028Z,11.70
2023-10-05T02:10:33.630Z,11.80
2023-10-05T02:13:02.752Z,11.80
2023-10-05T02:15:30.388Z,11.90
2023-10-05T02:18:03.305Z,11.90
2023-10-05T02:20:32.951Z,11.90
2023-10-05T02:23:00.004Z,11.90
2023-10-05T02:25:35.382Z,11.90
2023-10-05T02:28:04.056Z,11.90
2023-10-05T02:30:33.029Z,11.80
2023-10-05T02:33:00.767Z,11.80
2023-10-05T02:35:34.416Z,11.70
2023-10-05T02:38:06.480Z,11.60
2023-10-05T02:40:39.277Z,11.60
2023-10-05T02:43:09.064Z,11.80
2023-10-05T02:45:38.434Z,11.90
2023-10-05T02:48:11.261Z,11.90
2023-10-05T02:50:41.222Z,12.00
2023-10-05T02:53:08.164Z,12.00
2023-10-05T02:55:37.279Z,12.00
2023-10-05T02:58:05.811Z,12.00
2023-10-05T03:00:34.500Z,12.00
2023-10-05T03:03:06.571Z,12.00
2023-10-05T03:05:36.301Z,12.00
2023-10-05T03:08:04.944Z,12.00
2023-10-05T03:10:31.921Z,12.10
2023-10-05T03:12:59.993Z,12.10
2023-10-05T03:15:29.108Z,12.10
2023-10-05T03:17:58.515Z,12.10
2023-10-05T03:20:26.372Z,12.10
2023-10-05T03:22:56.971Z,12.10
2023-10-05T03:25:27.263Z,12.10
2023-10-05T03:27:57.639Z,12.10
2023-10-05T03:30:31.593Z,12.00
2023-10-05T03:33:02.194Z,12.10
2023-10-05T03:35:33.783Z,12.00
2023-10-05T03:38:01.867Z,12.00
2023-10-05T03:40:36.809Z,12.00
2023-10-05T03:43:06.573Z,12.00
2023-10-05T03:45:36.382Z,12.00
2023-10-05T03:48:03.786Z,12.00
2023-10-05T03:50:31.840Z,12.00
2023-10-05T03:52:59.725Z,12.00
2023-10-05T03:55:26.828Z,12.00
2023-10-05T03:57:56.048Z,11.90
2023-10-05T04:00:23.028Z,11.90
2023-10-05T04:02:55.181Z,11.90
2023-10-05T04:05:24.422Z,11.90
2023-10-05T04:07:53.543Z,12.00
2023-10-05T04:10:40.938Z,12.00
2023-10-05T04:13:08.052Z,12.00
2023-10-05T04:15:34.919Z,12.00
2023-10-05T04:18:01.835Z,12.00
2023-10-05T04:20:29.848Z,12.00
2023-10-05T04:22:57.582Z,12.00
2023-10-05T04:25:25.111Z,12.00
2023-10-05T04:27:53.984Z,12.00
2023-10-05T04:30:24.824Z,12.00
2023-10-05T04:32:52.022Z,12.00
2023-10-05T04:35:28.750Z,12.00
2023-10-05T04:37:57.757Z,12.10
2023-10-05T04:40:26.345Z,12.10
2023-10-05T04:42:54.192Z,12.10
2023-10-05T04:45:22.281Z,12.10
2023-10-05T04:47:50.183Z,12.10
2023-10-05T04:50:18.525Z,12.10
2023-10-05T04:52:52.408Z,12.10
2023-10-05T04:55:24.049Z,12.10
2023-10-05T04:57:51.713Z,12.20
2023-10-05T05:00:27.882Z,12.20
2023-10-05T05:03:18.405Z,12.20
2023-10-05T05:05:58.761Z,12.20
2023-10-05T05:08:25.665Z,12.20
2023-10-05T05:10:52.569Z,12.20
2023-10-05T05:13:22.079Z,12.20
2023-10-05T05:15:49.063Z,12.20
2023-10-05T05:18:16.763Z,12.20
2023-10-05T05:20:47.132Z,12.20
2023-10-05T05:23:14.546Z,12.20
2023-10-05T05:25:41.703Z,12.30
2023-10-05T05:28:09.908Z,12.30
2023-10-05T05:30:41.963Z,12.30
2023-10-05T05:33:12.144Z,12.30
2023-10-05T05:35:40.962Z,12.40
2023-10-05T05:38:11.833Z,12.40
2023-10-05T05:40:40.169Z,12.40
2023-10-05T05:43:12.738Z,12.40
2023-10-05T05:45:43.850Z,12.40
2023-10-05T05:48:15.411Z,12.40
2023-10-05T05:50:43.734Z,12.40
2023-10-05T05:53:14.068Z,12.40
2023-10-05T05:55:45.983Z,12.40
2023-10-05T05:58:18.036Z,12.50
2023-10-05T06:00:48.654Z,12.50
2023-10-05T06:03:15.780Z,12.50
2023-10-05T06:05:42.720Z,12.50
2023-10-05T06:08:11.125Z,12.50
2023-10-05T06:10:38.204Z,12.50
2023-10-05T06:13:12.872Z,12.50
2023-10-05T06:15:41.102Z,12.50
2023-10-05T06:18:08.625Z,12.50
2023-10-05T06:20:36.401Z,12.50
2023-10-05T06:23:03.980Z,12.50
2023-10-05T06:25:32.150Z,12.50
2023-10-05T06:28:00.365Z,12.50
2023-10-05T06:30:27.370Z,12.60
2023-10-05T06:32:55.833Z,12.60
2023-10-05T06:35:23.024Z,12.60
2023-10-05T06:37:50.376Z,12.60
2023-10-05T06:40:23.047Z,12.70
2023-10-05T06:42:51.235Z,12.70
2023-10-05T06:45:21.008Z,12.70
2023-10-05T06:47:49.949Z,12.70
2023-10-05T06:50:17.187Z,12.70
2023-10-05T06:52:45.645Z,12.80
2023-10-05T06:55:14.598Z,12.80
2023-10-05T06:57:46.012Z,12.80
2023-10-05T07:00:18.230Z,12.70
2023-10-05T07:02:48.469Z,12.70
2023-10-05T07:05:16.721Z,12.70
2023-10-05T07:07:44.269Z,12.70
2023-10-05T07:10:15.334Z,12.70
2023-10-05T07:12:46.122Z,12.80
2023-10-05T07:15:19.352Z,12.70
2023-10-05T07:17:48.893Z,12.80
2023-10-05T07:20:18.877Z,12.80
2023-10-05T07:22:47.655Z,12.80
2023-10-05T07:25:21.006Z,12.80
2023-10-05T07:27:51.471Z,12.80
2023-10-05T07:30:18.658Z,12.80
2023-10-05T07:32:48.750Z,12.70
2023-10-05T07:35:24.742Z,12.80
2023-10-05T07:37:52.528Z,12.70
2023-10-05T07:40:19.603Z,12.70
2023-10-05T07:42:47.236Z,12.70
2023-10-05T07:45:17.065Z,12.80
2023-10-05T07:47:50.570Z,12.80
2023-10-05T07:50:17.573Z,12.80
2023-10-05T07:52:45.556Z,12.80
2023-10-05T07:55:12.964Z,12.80
2023-10-05T07:57:40.121Z,12.80
2023-10-05T08:00:12.538Z,12.80
2023-10-05T08:02:40.952Z,12.80
2023-10-05T08:05:10.468Z,12.80
2023-10-05T08:07:37.534Z,12.80
2023-10-05T08:10:05.779Z,12.80
2023-10-05T08:12:32.678Z,12.70
2023-10-05T08:15:00.911Z,12.70
2023-10-05T08:17:28.586Z,12.60
2023-10-05T08:19:55.517Z,12.60
2023-10-05T08:22:23.623Z,12.60
2023-10-05T08:24:53.011Z,12.60
2023-10-05T08:27:21.271Z,12.60
2023-10-05T08:29:48.680Z,12.60
2023-10-05T08:32:17.239Z,12.70
2023-10-05T08:34:46.287Z,12.70
2023-10-05T08:37:13.354Z,12.70
2023-10-05T08:39:40.237Z,12.70
2023-10-05T08:42:07.991Z,12.70
2023-10-05T08:44:43.324Z,12.70
2023-10-05T08:47:14.386Z,12.60
2023-10-05T08:49:45.136Z,12.50
2023-10-05T08:52:21.642Z,12.50
2023-10-05T08:54:54.449Z,12.50
2023-10-05T08:57:22.877Z,12.50
2023-10-05T08:59:53.975Z,12.60
2023-10-05T09:02:23.075Z,12.60
2023-10-05T09:05:01.735Z,12.60
2023-10-05T09:07:39.606Z,12.60
2023-10-05T09:10:11.588Z,12.60
2023-10-05T09:12:48.599Z,12.70
2023-10-05T09:15:27.368Z,12.80
2023-10-05T09:18:00.342Z,12.90
2023-10-05T09:20:34.764Z,12.90
2023-10-05T09:23:11.061Z,12.90
2023-10-05T09:25:41.631Z,13.00
2023-10-05T09:28:18.425Z,12.90
2023-10-05T09:30:50.991Z,12.90
2023-10-05T09:33:20.180Z,13.00
2023-10-05T09:35:48.148Z,13.00
2023-10-05T09:38:18.330Z,13.00
2023-10-05T09:40:48.266Z,13.00
2023-10-05T09:43:22.638Z,12.90
2023-10-05T09:45:55.067Z,12.70
2023-10-05T09:48:22.730Z,12.40
2023-10-05T09:50:50.227Z,12.30
2023-10-05T09:53:20.398Z,12.20
2023-10-05T09:55:54.755Z,12.00
2023-10-05T09:58:22.700Z,11.70
2023-10-05T10:00:51.020Z,11.40
2023-10-05T10:03:18.891Z,11.20
2023-10-05T10:05:50.530Z,11.20
2023-10-05T10:08:28.980Z,11.10
2023-10-05T10:11:10.572Z,11.10
2023-10-05T10:13:41.142Z,11.10
2023-10-05T10:16:19.210Z,11.20
2023-10-05T10:18:46.273Z,11.30
2023-10-05T10:21:33.506Z,11.20
2023-10-05T10:24:08.768Z,11.10
2023-10-05T10:26:46.472Z,11.10
2023-10-05T10:29:17.852Z,11.00
2023-10-05T10:31:48.879Z,11.10
2023-10-05T10:34:52.045Z,11.20
2023-10-05T10:37:46.428Z,11.20
2023-10-05T10:40:20.976Z,11.20
2023-10-05T10:43:05.476Z,11.20
2023-10-05T10:45:43.049Z,11.20
2023-10-05T10:48:20.745Z,11.20
2023-10-05T10:50:48.892Z,11.30
2023-10-05T10:53:19.257Z,11.20
2023-10-05T10:55:47.835Z,11.20
2023-10-05T10:58:18.069Z,11.20
2023-10-05T11:01:00.795Z,11.20
2023-10-05T11:03:31.952Z,11.10
2023-10-05T11:06:01.586Z,11.00
2023-10-05T11:08:33.280Z,11.00
2023-10-05T11:11:07.904Z,11.00
2023-10-05T11:13:46.787Z,11.10
2023-10-05T11:16:16.964Z,11.00
2023-10-05T11:18:58.901Z,11.00
2023-10-05T11:21:35.108Z,11.00
2023-10-05T11:24:09.796Z,11.00
2023-10-05T11:26:57.252Z,11.00
2023-10-05T11:29:35.422Z,11.00
2023-10-05T11:32:31.490Z,11.00
2023-10-05T11:35:19.558Z,11.00
2023-10-05T11:38:00.147Z,10.90
2023-10-05T11:40:36.724Z,11.00
2023-10-05T11:43:13.694Z,11.00
2023-10-05T11:46:18.438Z,11.00
2023-10-05T11:48:49.625Z,11.10
2023-10-05T11:51:21.202Z,11.10
2023-10-05T11:53:48.899Z,11.10
2023-10-05T11:56:19.351Z,11.20
2023-10-05T11:58:48.274Z,11.20
2023-10-05T12:01:18.427Z,11.20
2023-10-05T12:03:46.015Z,11.20
2023-10-05T12:06:13.943Z,11.20
2023-10-05T12:08:43.019Z,11.20
2023-10-05T12:11:11.786Z,11.20
2023-10-05T12:13:39.461Z,11.30
2023-10-05T12:16:12.817Z,11.30
2023-10-05T12:18:43.233Z,11.40
2023-10-05T12:21:11.928Z,11.50
2023-10-05T12:23:39.128Z,11.60
2023-10-05T12:26:11.335Z,11.70
2023-10-05T12:28:44.999Z,11.60
2023-10-05T12:31:13.274Z,11.70
2023-10-05T12:33:43.304Z,11.70
2023-10-05T12:36:10.225Z,11.60
2023-10-05T12:38:37.844Z,11.60
2023-10-05T12:41:14.683Z,11.50
2023-10-05T12:43:43.746Z,11.50
2023-10-05T12:46:14.783Z,11.50
2023-10-05T12:48:41.876Z,11.40
2023-10-05T12:51:13.141Z,11.40
2023-10-05T12:53:39.986Z,11.30
2023-10-05T12:56:07.255Z,11.30
2023-10-05T12:58:34.951Z,11.20
2023-10-05T13:01:08.698Z,11.20
2023-10-05T13:03:37.003Z,11.20
2023-10-05T13:06:07.317Z,11.20
2023-10-05T13:08:34.194Z,11.20
2023-10-05T13:11:02.893Z,11.20
2023-10-05T13:13:30.049Z,11.10
2023-10-05T13:15:57.037Z,11.10
2023-10-05T13:18:27.089Z,11.10
2023-10-05T13:20:55.210Z,11.10
2023-10-05T13:23:23.992Z,11.10
2023-10-05T13:25:53.118Z,11.10
2023-10-05T13:28:24.979Z,11.10
2023-10-05T13:30:52.536Z,11.00
2023-10-05T13:33:23.976Z,11.00
2023-10-05T13:35:52.716Z,11.00
2023-10-05T13:38:25.464Z,11.00
2023-10-05T13:41:07.463Z,11.00
2023-10-05T13:43:38.109Z,11.00
2023-10-05T13:46:14.473Z,10.90
2023-10-05T13:48:43.060Z,10.80
2023-10-05T13:51:13.857Z,10.80
2023-10-05T13:53:45.699Z,10.80
2023-10-05T13:56:13.790Z,10.80
2023-10-05T13:58:44.924Z,10.70
2023-10-05T14:01:18.671Z,10.70
2023-10-05T14:03:46.941Z,10.60
2023-10-05T14:06:14.590Z,10.60
2023-10-05T14:08:45.452Z,10.60
2023-10-05T14:11:13.946Z,10.60
2023-10-05T14:13:40.899Z,10.70
2023-10-05T14:16:08.019Z,10.80
2023-10-05T14:18:34.915Z,10.80
2023-10-05T14:21:05.754Z,10.70
2023-10-05T14:23:32.661Z,10.60
2023-10-05T14:26:01.281Z,10.60
2023-10-05T14:28:28.304Z,10.60
2023-10-05T14:30:56.860Z,10.50
2023-10-05T14:33:27.934Z,10.60
2023-10-05T14:35:58.134Z,10.50
2023-10-05T14:38:26.588Z,10.50
2023-10-05T14:40:55.123Z,10.60
2023-10-05T14:43:29.364Z,10.60
2023-10-05T14:45:59.360Z,10.50
2023-10-05T14:48:31.121Z,10.50
2023-10-05T14:51:06.391Z,10.50
2023-10-05T14:53:35.520Z,10.40
2023-10-05T14:56:02.656Z,10.40
2023-10-05T14:58:30.952Z,10.40
2023-10-05T15:00:58.203Z,10.40
2023-10-05T15:03:26.345Z,10.30
2023-10-05T15:05:56.577Z,10.30
2023-10-05T15:08:23.495Z,10.30
2023-10-05T15:10:50.363Z,10.30
2023-10-05T15:13:18.401Z,10.30
2023-10-05T15:15:47.120Z,10.30
2023-10-05T15:18:15.397Z,10.30
2023-10-05T15:20:42.345Z,10.40
2023-10-05T15:23:10.593Z,10.30
2023-10-05T15:25:39.915Z,10.30
2023-10-05T15:28:08.308Z,10.30
2023-10-05T15:30:35.992Z,10.30
2023-10-05T15:33:03.897Z,10.30
2023-10-05T15:35:31.221Z,10.30
2023-10-05T15:37:58.222Z,10.30
2023-10-05T15:40:25.211Z,10.20
2023-10-05T15:42:53.573Z,10.20
2023-10-05T15:45:28.919Z,10.20
2023-10-05T15:47:57.106Z,10.20
2023-10-05T15:50:26.834Z,10.20
2023-10-05T15:53:05.639Z,10.20
2023-10-05T15:55:32.541Z,10.10
2023-10-05T15:57:59.440Z,10.10
2023-10-05T16:00:30.293Z,10.00
2023-10-05T16:02:59.202Z,10.00
2023-10-05T16:05:36.811Z,10.10
2023-10-05T16:08:07.046Z,10.10
2023-10-05T16:10:35.284Z,10.10
2023-10-05T16:13:02.362Z,10.00
2023-10-05T16:15:29.292Z,10.00
2023-10-05T16:17:56.255Z,10.00
2023-10-05T16:20:27.938Z,10.00
2023-10-05T16:23:00.792Z,9.90
2023-10-05T16:25:28.587Z,9.90
2023-10-05T16:27:56.059Z,9.90
2023-10-05T16:30:23.621Z,9.90
2023-10-05T16:32:53.390Z,9.80
2023-10-05T16:35:20.321Z,9.80
2023-10-05T16:37:49.578Z,9.80
2023-10-05T16:40:20.156Z,9.80
2023-10-05T16:42:49.450Z,9.80
2023-10-05T16:45:21.143Z,9.80
2023-10-05T16:47:52.473Z,9.80
2023-10-05T16:50:21.508Z,9.80
2023-10-05T16:52:51.081Z,9.90
2023-10-05T16:55:22.268Z,9.90
2023-10-05T16:57:52.283Z,9.90
2023-10-05T17:00:28.678Z,9.90
2023-10-05T17:02:56.666Z,9.90
2023-10-05T17:05:27.117Z,10.00
2023-10-05T17:07:56.219Z,10.00
2023-10-05T17:10:25.062Z,10.00
2023-10-05T17:12:53.089Z,10.00
2023-10-05T17:15:22.362Z,10.00
2023-10-05T17:17:49.465Z,10.00
2023-10-05T17:20:16.436Z,10.00
2023-10-05T17:22:44.364Z,10.00
2023-10-05T17:25:11.222Z,10.00
2023-10-05T17:27:38.551Z,10.00
2023-10-05T17:30:06.470Z,9.90
2023-10-05T17:32:34.034Z,9.90
2023-10-05T17:35:01.609Z,9.90
2023-10-05T17:37:29.112Z,9.90
2023-10-05T17:39:57.395Z,9.90
2023-10-05T17:42:24.611Z,9.80
2023-10-05T17:44:52.299Z,9.80
2023-10-05T17:47:19.946Z,9.80
2023-10-05T17:49:46.987Z,9.80
2023-10-05T17:52:13.978Z,9.80
2023-10-05T17:54:40.889Z,9.80
2023-10-05T17:57:11.849Z,9.80
2023-10-05T17:59:40.985Z,9.80
2023-10-05T18:02:08.004Z,9.80
2023-10-05T18:04:38.077Z,9.80
2023-10-05T18:07:08.243Z,9.80
2023-10-05T18:09:38.665Z,9.70
2023-10-05T18:12:09.045Z,9.70
2023-10-05T18:14:37.188Z,9.70
2023-10-05T18:17:06.455Z,9.70
2023-10-05T18:19:33.943Z,9.70
2023-10-05T18:22:01.467Z,9.60
2023-10-05T18:24:28.709Z,9.60
2023-10-05T18:26:55.627Z,9.60
2023-10-05T18:29:22.544Z,9.60
2023-10-05T18:31:49.591Z,9.60
2023-10-05T18:34:16.758Z,9.60
2023-10-05T18:36:43.612Z,9.70
2023-10-05T18:39:15.166Z,9.70
2023-10-05T18:41:43.537Z,9.60
2023-10-05T18:44:10.832Z,9.70
2023-10-05T18:46:38.237Z,9.60
2023-10-05T18:49:08.753Z,9.70
2023-10-05T18:51:37.834Z,9.70
2023-10-05T18:54:05.107Z,9.60
2023-10-05T18:56:32.409Z,9.60
2023-10-05T18:59:01.398Z,9.60
2023-10-05T19:01:28.793Z,9.60
2023-10-05T19:03:55.944Z,9.60
2023-10-05T19:06:23.873Z,9.60
2023-10-05T19:08:50.831Z,9.60
2023-10-05T19:11:19.553Z,9.60
2023-10-05T19:13:46.546Z,9.60
2023-10-05T19:16:13.597Z,9.60
2023-10-05T19:18:40.482Z,9.60
2023-10-05T19:21:12.858Z,9.60
2023-10-05T19:23:40.482Z,9.60
2023-10-05T19:26:07.384Z,9.60
2023-10-05T19:28:36.640Z,9.60
2023-10-05T19:31:04.386Z,9.60
2023-10-05T19:33:34.476Z,9.50
2023-10-05T19:36:02.563Z,9.50
2023-10-05T19:38:29.571Z,9.50
2023-10-05T19:40:56.456Z,9.50
2023-10-05T19:43:23.566Z,9.50
2023-10-05T19:45:50.640Z,9.50
2023-10-05T19:48:17.752Z,9.50
2023-10-05T19:50:45.040Z,9.50
2023-10-05T19:53:13.963Z,9.40
2023-10-05T19:55:41.109Z,9.40
2023-10-05T19:58:07.973Z,9.40
2023-10-05T20:00:34.883Z,9.40
2023-10-05T20:03:02.117Z,9.40
2023-10-05T20:05:29.871Z,9.30
2023-10-05T20:07:59.612Z,9.40
2023-10-05T20:10:36.891Z,9.30
2023-10-05T20:13:06.611Z,9.30
2023-10-05T20:15:43.940Z,9.30
2023-10-05T20:18:11.242Z,9.30
2023-10-05T20:20:41.125Z,9.30
2023-10-05T20:23:08.337Z,9.30
2023-10-05T20:25:40.748Z,9.30
2023-10-05T20:28:09.716Z,9.30
2023-10-05T20:30:39.520Z,9.30
2023-10-05T20:33:07.072Z,9.30
2023-10-05T20:35:34.011Z,9.30
2023-10-05T20:38:00.970Z,9.30
2023-10-05T20:40:28.011Z,9.30
2023-10-05T20:42:54.864Z,9.30
2023-10-05T20:45:22.760Z,9.30
2023-10-05T20:47:49.722Z,9.20
2023-10-05T20:50:16.646Z,9.30
2023-10-05T20:52:43.559Z,9.20
2023-10-05T20:55:10.885Z,9.20
2023-10-05T20:57:37.742Z,9.20
2023-10-05T21:00:08.364Z,9.10
2023-10-05T21:02:35.383Z,9.10
2023-10-05T21:05:02.455Z,9.10
2023-10-05T21:07:29.462Z,9.10
2023-10-05T21:09:56.913Z,9.10
2023-10-05T21:12:23.736Z,9.00
2023-10-05T21:14:51.714Z,9.10
2023-10-05T21:17:19.485Z,9.00
2023-10-05T21:19:46.504Z,9.00
2023-10-05T21:22:13.407Z,9.00
2023-10-05T21:24:40.252Z,8.90
2023-10-05T21:27:07.161Z,8.90
2023-10-05T21:29:34.082Z,8.90
2023-10-05T21:32:01.889Z,9.00
2023-10-05T21:34:29.830Z,9.00
2023-10-05T21:36:58.013Z,8.90
2023-10-05T21:39:25.148Z,8.90
2023-10-05T21:41:52.009Z,8.90
2023-10-05T21:44:18.993Z,8.90
2023-10-05T21:46:45.937Z,8.90
2023-10-05T21:49:14.324Z,8.90
2023-10-05T21:51:41.152Z,8.80
2023-10-05T21:54:09.675Z,8.80
2023-10-05T21:56:36.753Z,8.80
2023-10-05T21:59:04.542Z,8.80
2023-10-05T22:01:33.545Z,8.80
2023-10-05T22:04:00.580Z,8.70
2023-10-05T22:06:28.688Z,8.70
2023-10-05T22:08:58.583Z,8.70
2023-10-05T22:11:25.435Z,8.70
2023-10-05T22:13:53.842Z,8.70
2023-10-05T22:16:20.834Z,8.70
2023-10-05T22:18:48.486Z,8.70
2023-10-05T22:21:15.355Z,8.70
2023-10-05T22:23:44.914Z,8.60
2023-10-05T22:26:11.957Z,8.60
2023-10-05T22:28:38.836Z,8.60
2023-10-05T22:31:05.783Z,8.60
2023-10-05T22:33:32.673Z,8.60
2023-10-05T22:36:00.665Z,8.60
2023-10-05T22:38:41.259Z,8.60
2023-10-05T22:41:11.354Z,8.60
2023-10-05T22:43:38.306Z,8.50
2023-10-05T22:46:16.038Z,8.60
2023-10-05T22:48:43.302Z,8.60
2023-10-05T22:51:20.630Z,8.60
2023-10-05T22:53:51.888Z,8.60
2023-10-05T22:56:19.260Z,8.60
2023-10-05T22:58:47.841Z,8.60
2023-10-05T23:01:16.332Z,8.50
2023-10-05T23:03:43.702Z,8.50
2023-10-05T23:06:10.706Z,8.50
2023-10-05T23:08:37.718Z,8.40
2023-10-05T23:11:07.132Z,8.40
2023-10-05T23:13:34.463Z,8.50
2023-10-05T23:16:01.706Z,8.50
2023-10-05T23:18:28.725Z,8.40
2023-10-05T23:20:57.573Z,8.50
2023-10-05T23:23:25.624Z,8.40
2023-10-05T23:25:52.512Z,8.40
2023-10-05T23:28:20.022Z,8.40
2023-10-05T23:30:47.420Z,8.40
2023-10-05T23:33:14.826Z,8.40
2023-10-05T23:35:41.742Z,8.40
2023-10-05T23:38:13.945Z,8.30
2023-10-05T23:40:44.878Z,8.30
2023-10-05T23:43:17.159Z,8.30
2023-10-05T23:45:47.737Z,8.30
2023-10-05T23:48:15.109Z,8.30
2023-10-05T23:50:42.181Z,8.20
2023-10-05T23:53:11.224Z,8.20
2023-10-05T23:55:44.409Z,8.20
2023-10-05T23:58:16.516Z,8.20
